sensor_id;sensor_type;location;lat;lon;timestamp;temperature;humidity
75363;DHT22;64122;51.988;5.892;2023-08-20T00:00:16;21.44;67.95
75363;DHT22;64122;51.988;5.892;2023-08-20T00:02:46;21.44;67.96
75363;DHT22;64122;51.988;5.892;2023-08-20T00:05:21;21.43;68.00
75363;DHT22;64122;51.988;5.892;2023-08-20T00:07:51;21.48;68.04
75363;DHT22;64122;51.988;5.892;2023-08-20T00:10:20;21.50;67.97
75363;DHT22;64122;51.988;5.892;2023-08-20T00:12:49;21.53;67.69
75363;DHT22;64122;51.988;5.892;2023-08-20T00:15:18;21.57;67.59
75363;DHT22;64122;51.988;5.892;2023-08-20T00:17:53;21.60;67.51
75363;DHT22;64122;51.988;5.892;2023-08-20T00:20:25;21.62;67.50
75363;DHT22;64122;51.988;5.892;2023-08-20T00:22:56;21.64;67.40
75363;DHT22;64122;51.988;5.892;2023-08-20T00:25:26;21.61;67.42
75363;DHT22;64122;51.988;5.892;2023-08-20T00:27:55;21.58;67.59
75363;DHT22;64122;51.988;5.892;2023-08-20T00:30:24;21.47;67.87
75363;DHT22;64122;51.988;5.892;2023-08-20T00:32:53;21.38;68.15
75363;DHT22;64122;51.988;5.892;2023-08-20T00:35:25;21.29;68.48
75363;DHT22;64122;51.988;5.892;2023-08-20T00:37:54;21.09;68.65
75363;DHT22;64122;51.988;5.892;2023-08-20T00:40:23;21.17;68.81
75363;DHT22;64122;51.988;5.892;2023-08-20T00:42:52;21.17;68.78
75363;DHT22;64122;51.988;5.892;2023-08-20T00:45:22;21.16;68.81
75363;DHT22;64122;51.988;5.892;2023-08-20T00:47:51;21.16;68.92
75363;DHT22;64122;51.988;5.892;2023-08-20T00:50:21;21.14;68.98
75363;DHT22;64122;51.988;5.892;2023-08-20T00:52:53;21.09;69.02
75363;DHT22;64122;51.988;5.892;2023-08-20T00:55:22;21.08;69.00
75363;DHT22;64122;51.988;5.892;2023-08-20T00:57:51;21.06;69.04
75363;DHT22;64122;51.988;5.892;2023-08-20T01:00:23;21.02;69.13
75363;DHT22;64122;51.988;5.892;2023-08-20T01:02:54;20.96;69.33
75363;DHT22;64122;51.988;5.892;2023-08-20T01:05:24;20.95;69.36
75363;DHT22;64122;51.988;5.892;2023-08-20T01:08:04;20.94;69.34
75363;DHT22;64122;51.988;5.892;2023-08-20T01:10:41;20.96;69.24
75363;DHT22;64122;51.988;5.892;2023-08-20T01:13:11;21.00;69.11
75363;DHT22;64122;51.988;5.892;2023-08-20T01:15:41;21.02;69.08
75363;DHT22;64122;51.988;5.892;2023-08-20T01:18:10;21.05;69.15
75363;DHT22;64122;51.988;5.892;2023-08-20T01:20:43;21.09;69.13
75363;DHT22;64122;51.988;5.892;2023-08-20T01:23:34;21.11;68.92
75363;DHT22;64122;51.988;5.892;2023-08-20T01:26:30;21.09;68.95
75363;DHT22;64122;51.988;5.892;2023-08-20T01:29:04;21.09;69.08
75363;DHT22;64122;51.988;5.892;2023-08-20T01:31:34;21.16;68.94
75363;DHT22;64122;51.988;5.892;2023-08-20T01:34:04;21.22;68.72
75363;DHT22;64122;51.988;5.892;2023-08-20T01:36:33;21.29;68.71
75363;DHT22;64122;51.988;5.892;2023-08-20T01:39:02;21.31;68.62
75363;DHT22;64122;51.988;5.892;2023-08-20T01:41:34;21.31;68.71
75363;DHT22;64122;51.988;5.892;2023-08-20T01:44:06;21.28;68.82
75363;DHT22;64122;51.988;5.892;2023-08-20T01:46:35;21.28;68.94
75363;DHT22;64122;51.988;5.892;2023-08-20T01:49:04;21.27;69.02
75363;DHT22;64122;51.988;5.892;2023-08-20T01:51:33;21.22;68.99
75363;DHT22;64122;51.988;5.892;2023-08-20T01:54:03;21.19;69.20
75363;DHT22;64122;51.988;5.892;2023-08-20T01:56:32;21.15;69.20
75363;DHT22;64122;51.988;5.892;2023-08-20T01:59:04;21.11;69.29
75363;DHT22;64122;51.988;5.892;2023-08-20T02:01:34;21.09;69.37
75363;DHT22;64122;51.988;5.892;2023-08-20T02:04:03;21.06;69.45
75363;DHT22;64122;51.988;5.892;2023-08-20T02:06:32;21.02;69.49
75363;DHT22;64122;51.988;5.892;2023-08-20T02:09:02;21.01;69.62
75363;DHT22;64122;51.988;5.892;2023-08-20T02:11:32;20.96;69.76
75363;DHT22;64122;51.988;5.892;2023-08-20T02:14:04;20.93;69.92
75363;DHT22;64122;51.988;5.892;2023-08-20T02:16:34;20.87;70.05
75363;DHT22;64122;51.988;5.892;2023-08-20T02:19:03;20.84;70.13
75363;DHT22;64122;51.988;5.892;2023-08-20T02:21:32;20.83;70.19
75363;DHT22;64122;51.988;5.892;2023-08-20T02:24:02;20.83;70.15
75363;DHT22;64122;51.988;5.892;2023-08-20T02:26:31;20.79;70.17
75363;DHT22;64122;51.988;5.892;2023-08-20T02:29:01;20.79;70.35
75363;DHT22;64122;51.988;5.892;2023-08-20T02:31:34;20.73;70.46
75363;DHT22;64122;51.988;5.892;2023-08-20T02:34:04;20.72;70.55
75363;DHT22;64122;51.988;5.892;2023-08-20T02:36:33;20.73;70.48
75363;DHT22;64122;51.988;5.892;2023-08-20T02:39:02;20.71;70.61
75363;DHT22;64122;51.988;5.892;2023-08-20T02:41:35;20.65;70.71
75363;DHT22;64122;51.988;5.892;2023-08-20T02:44:05;20.63;70.87
75363;DHT22;64122;51.988;5.892;2023-08-20T02:46:37;20.61;70.80
75363;DHT22;64122;51.988;5.892;2023-08-20T02:49:07;20.58;70.98
75363;DHT22;64122;51.988;5.892;2023-08-20T02:51:36;20.55;71.19
75363;DHT22;64122;51.988;5.892;2023-08-20T02:54:07;20.55;71.03
75363;DHT22;64122;51.988;5.892;2023-08-20T02:56:37;20.49;71.35
75363;DHT22;64122;51.988;5.892;2023-08-20T02:59:06;20.46;71.48
75363;DHT22;64122;51.988;5.892;2023-08-20T03:01:38;20.42;71.64
75363;DHT22;64122;51.988;5.892;2023-08-20T03:04:07;20.40;71.64
75363;DHT22;64122;51.988;5.892;2023-08-20T03:06:36;20.37;71.59
75363;DHT22;64122;51.988;5.892;2023-08-20T03:09:05;20.36;71.74
75363;DHT22;64122;51.988;5.892;2023-08-20T03:11:35;20.34;71.77
75363;DHT22;64122;51.988;5.892;2023-08-20T03:14:05;20.32;71.81
75363;DHT22;64122;51.988;5.892;2023-08-20T03:16:36;20.31;71.78
75363;DHT22;64122;51.988;5.892;2023-08-20T03:19:06;20.29;71.84
75363;DHT22;64122;51.988;5.892;2023-08-20T03:21:35;20.27;71.99
75363;DHT22;64122;51.988;5.892;2023-08-20T03:24:05;20.26;72.30
75363;DHT22;64122;51.988;5.892;2023-08-20T03:26:34;20.24;72.56
75363;DHT22;64122;51.988;5.892;2023-08-20T03:29:04;20.25;72.65
75363;DHT22;64122;51.988;5.892;2023-08-20T03:31:33;20.21;72.77
75363;DHT22;64122;51.988;5.892;2023-08-20T03:34:05;20.20;73.00
75363;DHT22;64122;51.988;5.892;2023-08-20T03:36:36;20.24;73.03
75363;DHT22;64122;51.988;5.892;2023-08-20T03:39:05;20.22;73.04
75363;DHT22;64122;51.988;5.892;2023-08-20T03:41:36;20.24;72.93
75363;DHT22;64122;51.988;5.892;2023-08-20T03:44:06;20.24;72.62
75363;DHT22;64122;51.988;5.892;2023-08-20T03:46:35;20.24;72.53
75363;DHT22;64122;51.988;5.892;2023-08-20T03:49:07;20.18;72.41
75363;DHT22;64122;51.988;5.892;2023-08-20T03:51:36;20.18;72.41
75363;DHT22;64122;51.988;5.892;2023-08-20T03:54:07;20.16;72.51
75363;DHT22;64122;51.988;5.892;2023-08-20T03:56:37;20.14;72.45
75363;DHT22;64122;51.988;5.892;2023-08-20T03:59:07;20.12;72.56
75363;DHT22;64122;51.988;5.892;2023-08-20T04:01:36;20.11;72.69
75363;DHT22;64122;51.988;5.892;2023-08-20T04:04:08;20.09;72.64
75363;DHT22;64122;51.988;5.892;2023-08-20T04:06:37;20.07;72.43
75363;DHT22;64122;51.988;5.892;2023-08-20T04:09:07;20.04;72.41
75363;DHT22;64122;51.988;5.892;2023-08-20T04:11:37;20.02;72.64
75363;DHT22;64122;51.988;5.892;2023-08-20T04:14:06;20.02;72.74
75363;DHT22;64122;51.988;5.892;2023-08-20T04:16:35;20.02;72.71
75363;DHT22;64122;51.988;5.892;2023-08-20T04:19:07;19.99;72.73
75363;DHT22;64122;51.988;5.892;2023-08-20T04:21:36;19.94;72.86
75363;DHT22;64122;51.988;5.892;2023-08-20T04:24:06;19.89;72.84
75363;DHT22;64122;51.988;5.892;2023-08-20T04:26:35;19.89;72.91
75363;DHT22;64122;51.988;5.892;2023-08-20T04:29:04;19.90;72.86
75363;DHT22;64122;51.988;5.892;2023-08-20T04:31:34;19.87;72.92
75363;DHT22;64122;51.988;5.892;2023-08-20T04:34:10;19.88;72.99
75363;DHT22;64122;51.988;5.892;2023-08-20T04:36:45;19.89;72.90
75363;DHT22;64122;51.988;5.892;2023-08-20T04:39:14;19.88;72.77
75363;DHT22;64122;51.988;5.892;2023-08-20T04:41:47;19.89;72.83
75363;DHT22;64122;51.988;5.892;2023-08-20T04:44:18;19.89;72.69
75363;DHT22;64122;51.988;5.892;2023-08-20T04:46:49;19.91;72.64
75363;DHT22;64122;51.988;5.892;2023-08-20T04:49:21;19.88;72.71
75363;DHT22;64122;51.988;5.892;2023-08-20T04:51:54;19.90;72.73
75363;DHT22;64122;51.988;5.892;2023-08-20T04:54:23;19.91;72.61
75363;DHT22;64122;51.988;5.892;2023-08-20T04:56:52;19.91;72.65
75363;DHT22;64122;51.988;5.892;2023-08-20T04:59:23;19.89;72.64
75363;DHT22;64122;51.988;5.892;2023-08-20T05:02:22;19.87;72.75
75363;DHT22;64122;51.988;5.892;2023-08-20T05:04:57;19.89;72.68
75363;DHT22;64122;51.988;5.892;2023-08-20T05:07:26;19.94;72.61
75363;DHT22;64122;51.988;5.892;2023-08-20T05:09:56;19.97;72.58
75363;DHT22;64122;51.988;5.892;2023-08-20T05:12:25;19.99;72.41
75363;DHT22;64122;51.988;5.892;2023-08-20T05:14:54;20.01;72.27
75363;DHT22;64122;51.988;5.892;2023-08-20T05:17:24;20.06;72.12
75363;DHT22;64122;51.988;5.892;2023-08-20T05:19:53;20.07;71.90
75363;DHT22;64122;51.988;5.892;2023-08-20T05:22:25;20.10;71.82
75363;DHT22;64122;51.988;5.892;2023-08-20T05:24:54;20.13;71.83
75363;DHT22;64122;51.988;5.892;2023-08-20T05:27:23;20.16;71.51
75363;DHT22;64122;51.988;5.892;2023-08-20T05:29:52;20.20;71.36
75363;DHT22;64122;51.988;5.892;2023-08-20T05:32:21;20.24;71.11
75363;DHT22;64122;51.988;5.892;2023-08-20T05:34:52;20.27;71.03
75363;DHT22;64122;51.988;5.892;2023-08-20T05:37:22;20.31;70.93
75363;DHT22;64122;51.988;5.892;2023-08-20T05:39:54;20.35;70.80
75363;DHT22;64122;51.988;5.892;2023-08-20T05:42:23;20.40;70.61
75363;DHT22;64122;51.988;5.892;2023-08-20T05:44:59;20.41;70.58
75363;DHT22;64122;51.988;5.892;2023-08-20T05:47:29;20.42;70.61
75363;DHT22;64122;51.988;5.892;2023-08-20T05:49:58;20.47;70.35
75363;DHT22;64122;51.988;5.892;2023-08-20T05:52:28;20.51;70.16
75363;DHT22;64122;51.988;5.892;2023-08-20T05:55:00;20.55;69.71
75363;DHT22;64122;51.988;5.892;2023-08-20T05:57:30;20.61;69.26
75363;DHT22;64122;51.988;5.892;2023-08-20T05:59:59;20.66;69.24
75363;DHT22;64122;51.988;5.892;2023-08-20T06:02:39;20.77;68.85
75363;DHT22;64122;51.988;5.892;2023-08-20T06:05:10;20.87;68.68
75363;DHT22;64122;51.988;5.892;2023-08-20T06:07:39;20.99;67.94
75363;DHT22;64122;51.988;5.892;2023-08-20T06:10:11;21.14;67.40
75363;DHT22;64122;51.988;5.892;2023-08-20T06:12:40;21.22;67.14
75363;DHT22;64122;51.988;5.892;2023-08-20T06:15:10;21.28;67.03
75363;DHT22;64122;51.988;5.892;2023-08-20T06:17:39;21.25;67.08
75363;DHT22;64122;51.988;5.892;2023-08-20T06:20:09;21.28;66.94
75363;DHT22;64122;51.988;5.892;2023-08-20T06:22:39;21.31;66.47
75363;DHT22;64122;51.988;5.892;2023-08-20T06:25:11;21.33;66.09
75363;DHT22;64122;51.988;5.892;2023-08-20T06:27:42;21.38;66.04
75363;DHT22;64122;51.988;5.892;2023-08-20T06:30:12;21.38;65.94
75363;DHT22;64122;51.988;5.892;2023-08-20T06:32:43;21.43;65.59
75363;DHT22;64122;51.988;5.892;2023-08-20T06:35:13;21.47;65.40
75363;DHT22;64122;51.988;5.892;2023-08-20T06:37:42;21.49;65.25
75363;DHT22;64122;51.988;5.892;2023-08-20T06:40:14;21.53;65.27
75363;DHT22;64122;51.988;5.892;2023-08-20T06:42:43;21.57;65.10
75363;DHT22;64122;51.988;5.892;2023-08-20T06:45:12;21.58;65.06
75363;DHT22;64122;51.988;5.892;2023-08-20T06:47:41;21.60;64.95
75363;DHT22;64122;51.988;5.892;2023-08-20T06:50:10;21.65;64.91
75363;DHT22;64122;51.988;5.892;2023-08-20T06:52:40;21.67;65.09
75363;DHT22;64122;51.988;5.892;2023-08-20T06:55:09;21.74;64.97
75363;DHT22;64122;51.988;5.892;2023-08-20T06:57:40;21.82;64.91
75363;DHT22;64122;51.988;5.892;2023-08-20T07:00:10;21.90;64.85
75363;DHT22;64122;51.988;5.892;2023-08-20T07:02:39;21.95;64.60
75363;DHT22;64122;51.988;5.892;2023-08-20T07:05:09;22.03;64.37
75363;DHT22;64122;51.988;5.892;2023-08-20T07:07:39;22.07;63.89
75363;DHT22;64122;51.988;5.892;2023-08-20T07:10:08;22.14;63.76
75363;DHT22;64122;51.988;5.892;2023-08-20T07:12:40;22.22;63.56
75363;DHT22;64122;51.988;5.892;2023-08-20T07:15:10;22.26;63.69
75363;DHT22;64122;51.988;5.892;2023-08-20T07:17:39;22.32;63.52
75363;DHT22;64122;51.988;5.892;2023-08-20T07:20:09;22.40;63.50
75363;DHT22;64122;51.988;5.892;2023-08-20T07:22:38;22.47;63.10
75363;DHT22;64122;51.988;5.892;2023-08-20T07:25:08;22.57;62.79
75363;DHT22;64122;51.988;5.892;2023-08-20T07:27:40;22.63;62.00
75363;DHT22;64122;51.988;5.892;2023-08-20T07:30:11;22.71;61.79
75363;DHT22;64122;51.988;5.892;2023-08-20T07:32:40;22.80;61.89
75363;DHT22;64122;51.988;5.892;2023-08-20T07:35:27;22.87;61.91
75363;DHT22;64122;51.988;5.892;2023-08-20T07:37:57;23.05;61.22
75363;DHT22;64122;51.988;5.892;2023-08-20T07:40:26;23.12;60.93
75363;DHT22;64122;51.988;5.892;2023-08-20T07:42:57;23.21;60.84
75363;DHT22;64122;51.988;5.892;2023-08-20T07:45:27;23.38;60.58
75363;DHT22;64122;51.988;5.892;2023-08-20T07:47:56;23.56;60.28
75363;DHT22;64122;51.988;5.892;2023-08-20T07:50:25;23.75;59.41
75363;DHT22;64122;51.988;5.892;2023-08-20T07:52:54;23.90;58.63
75363;DHT22;64122;51.988;5.892;2023-08-20T07:55:23;24.14;58.81
75363;DHT22;64122;51.988;5.892;2023-08-20T07:57:52;24.54;57.77
75363;DHT22;64122;51.988;5.892;2023-08-20T08:00:24;25.03;56.27
75363;DHT22;64122;51.988;5.892;2023-08-20T08:02:54;25.77;53.95
75363;DHT22;64122;51.988;5.892;2023-08-20T08:05:23;27.52;49.80
75363;DHT22;64122;51.988;5.892;2023-08-20T08:07:52;30.12;43.54
75363;DHT22;64122;51.988;5.892;2023-08-20T08:10:21;32.52;38.71
75363;DHT22;64122;51.988;5.892;2023-08-20T08:12:50;34.27;35.51
75363;DHT22;64122;51.988;5.892;2023-08-20T08:15:20;35.58;32.73
75363;DHT22;64122;51.988;5.892;2023-08-20T08:17:51;36.56;31.28
75363;DHT22;64122;51.988;5.892;2023-08-20T08:20:20;37.26;32.72
75363;DHT22;64122;51.988;5.892;2023-08-20T08:22:49;37.70;29.59
75363;DHT22;64122;51.988;5.892;2023-08-20T08:25:19;38.14;28.55
75363;DHT22;64122;51.988;5.892;2023-08-20T08:27:48;38.58;27.74
75363;DHT22;64122;51.988;5.892;2023-08-20T08:30:17;38.79;27.29
75363;DHT22;64122;51.988;5.892;2023-08-20T08:32:46;39.14;26.49
75363;DHT22;64122;51.988;5.892;2023-08-20T08:35:19;39.48;25.46
75363;DHT22;64122;51.988;5.892;2023-08-20T08:37:48;39.54;25.04
75363;DHT22;64122;51.988;5.892;2023-08-20T08:40:18;39.66;25.12
75363;DHT22;64122;51.988;5.892;2023-08-20T08:42:48;39.74;24.82
75363;DHT22;64122;51.988;5.892;2023-08-20T08:45:18;39.83;24.74
75363;DHT22;64122;51.988;5.892;2023-08-20T08:47:49;40.03;24.46
75363;DHT22;64122;51.988;5.892;2023-08-20T08:50:21;40.10;24.03
75363;DHT22;64122;51.988;5.892;2023-08-20T08:52:51;40.24;23.14
75363;DHT22;64122;51.988;5.892;2023-08-20T08:55:21;40.16;22.76
75363;DHT22;64122;51.988;5.892;2023-08-20T08:57:50;40.22;22.79
75363;DHT22;64122;51.988;5.892;2023-08-20T09:00:20;40.30;22.34
75363;DHT22;64122;51.988;5.892;2023-08-20T09:02:49;40.31;22.62
75363;DHT22;64122;51.988;5.892;2023-08-20T09:05:21;40.22;23.09
75363;DHT22;64122;51.988;5.892;2023-08-20T09:07:55;40.21;22.63
75363;DHT22;64122;51.988;5.892;2023-08-20T09:10:28;40.11;22.84
75363;DHT22;64122;51.988;5.892;2023-08-20T09:12:57;39.92;22.18
75363;DHT22;64122;51.988;5.892;2023-08-20T09:15:33;39.76;22.54
75363;DHT22;64122;51.988;5.892;2023-08-20T09:18:02;39.62;22.20
75363;DHT22;64122;51.988;5.892;2023-08-20T09:20:37;39.40;22.77
75363;DHT22;64122;51.988;5.892;2023-08-20T09:23:11;39.23;22.97
75363;DHT22;64122;51.988;5.892;2023-08-20T09:25:41;39.18;22.70
75363;DHT22;64122;51.988;5.892;2023-08-20T09:28:11;39.11;22.68
75363;DHT22;64122;51.988;5.892;2023-08-20T09:30:40;38.98;22.88
75363;DHT22;64122;51.988;5.892;2023-08-20T09:33:23;38.92;22.83
75363;DHT22;64122;51.988;5.892;2023-08-20T09:35:54;38.71;22.83
75363;DHT22;64122;51.988;5.892;2023-08-20T09:38:24;38.52;23.06
75363;DHT22;64122;51.988;5.892;2023-08-20T09:40:54;38.31;23.50
75363;DHT22;64122;51.988;5.892;2023-08-20T09:43:27;38.07;23.97
75363;DHT22;64122;51.988;5.892;2023-08-20T09:45:58;37.87;24.20
75363;DHT22;64122;51.988;5.892;2023-08-20T09:48:33;37.58;24.88
75363;DHT22;64122;51.988;5.892;2023-08-20T09:51:11;37.38;25.05
75363;DHT22;64122;51.988;5.892;2023-08-20T09:53:45;37.00;24.67
75363;DHT22;64122;51.988;5.892;2023-08-20T09:56:22;36.73;25.09
75363;DHT22;64122;51.988;5.892;2023-08-20T09:58:53;36.51;25.49
75363;DHT22;64122;51.988;5.892;2023-08-20T10:01:23;36.23;25.77
75363;DHT22;64122;51.988;5.892;2023-08-20T10:03:53;35.90;26.01
75363;DHT22;64122;51.988;5.892;2023-08-20T10:06:25;35.43;26.46
75363;DHT22;64122;51.988;5.892;2023-08-20T10:08:55;34.95;26.87
75363;DHT22;64122;51.988;5.892;2023-08-20T10:11:25;34.40;27.92
75363;DHT22;64122;51.988;5.892;2023-08-20T10:13:55;34.09;28.02
75363;DHT22;64122;51.988;5.892;2023-08-20T10:16:27;33.71;29.02
75363;DHT22;64122;51.988;5.892;2023-08-20T10:19:02;33.43;29.32
75363;DHT22;64122;51.988;5.892;2023-08-20T10:21:34;33.08;29.84
75363;DHT22;64122;51.988;5.892;2023-08-20T10:24:04;32.77;30.03
75363;DHT22;64122;51.988;5.892;2023-08-20T10:26:35;32.39;30.71
75363;DHT22;64122;51.988;5.892;2023-08-20T10:29:34;31.99;30.92
75363;DHT22;64122;51.988;5.892;2023-08-20T10:32:13;31.69;31.48
75363;DHT22;64122;51.988;5.892;2023-08-20T10:34:44;31.43;32.96
75363;DHT22;64122;51.988;5.892;2023-08-20T10:37:28;31.34;33.00
75363;DHT22;64122;51.988;5.892;2023-08-20T10:39:57;31.25;32.56
75363;DHT22;64122;51.988;5.892;2023-08-20T10:42:27;31.10;32.97
75363;DHT22;64122;51.988;5.892;2023-08-20T10:44:57;30.96;32.62
75363;DHT22;64122;51.988;5.892;2023-08-20T10:50:21;30.99;33.49
75363;DHT22;64122;51.988;5.892;2023-08-20T10:52:55;30.99;33.60
75363;DHT22;64122;51.988;5.892;2023-08-20T10:55:24;31.06;32.62
75363;DHT22;64122;51.988;5.892;2023-08-20T10:57:57;30.98;32.72
75363;DHT22;64122;51.988;5.892;2023-08-20T11:00:28;31.04;32.92
75363;DHT22;64122;51.988;5.892;2023-08-20T11:02:58;31.10;32.97
75363;DHT22;64122;51.988;5.892;2023-08-20T11:05:28;31.12;32.77
75363;DHT22;64122;51.988;5.892;2023-08-20T11:08:00;31.19;32.90
75363;DHT22;64122;51.988;5.892;2023-08-20T11:10:31;31.20;32.45
75363;DHT22;64122;51.988;5.892;2023-08-20T11:13:00;31.25;32.16
75363;DHT22;64122;51.988;5.892;2023-08-20T11:15:32;31.28;32.54
75363;DHT22;64122;51.988;5.892;2023-08-20T11:18:02;31.36;32.35
75363;DHT22;64122;51.988;5.892;2023-08-20T11:20:32;31.40;32.17
75363;DHT22;64122;51.988;5.892;2023-08-20T11:23:05;31.40;31.43
75363;DHT22;64122;51.988;5.892;2023-08-20T11:25:41;31.22;31.25
75363;DHT22;64122;51.988;5.892;2023-08-20T11:28:10;31.27;31.35
75363;DHT22;64122;51.988;5.892;2023-08-20T11:30:39;31.28;31.41
75363;DHT22;64122;51.988;5.892;2023-08-20T11:33:09;31.28;31.26
75363;DHT22;64122;51.988;5.892;2023-08-20T11:35:38;31.26;31.48
75363;DHT22;64122;51.988;5.892;2023-08-20T11:38:10;31.27;31.96
75363;DHT22;64122;51.988;5.892;2023-08-20T11:40:42;31.34;31.38
75363;DHT22;64122;51.988;5.892;2023-08-20T11:43:11;31.37;31.16
75363;DHT22;64122;51.988;5.892;2023-08-20T11:45:45;31.34;30.96
75363;DHT22;64122;51.988;5.892;2023-08-20T11:48:15;31.23;31.22
75363;DHT22;64122;51.988;5.892;2023-08-20T11:50:44;31.25;31.02
75363;DHT22;64122;51.988;5.892;2023-08-20T11:53:21;31.20;30.74
75363;DHT22;64122;51.988;5.892;2023-08-20T11:55:51;31.12;30.74
75363;DHT22;64122;51.988;5.892;2023-08-20T11:58:20;31.13;31.24
75363;DHT22;64122;51.988;5.892;2023-08-20T12:00:50;31.06;31.31
75363;DHT22;64122;51.988;5.892;2023-08-20T12:03:19;30.89;31.36
75363;DHT22;64122;51.988;5.892;2023-08-20T12:05:49;30.83;31.68
75363;DHT22;64122;51.988;5.892;2023-08-20T12:08:20;30.90;31.51
75363;DHT22;64122;51.988;5.892;2023-08-20T12:10:49;30.87;31.95
75363;DHT22;64122;51.988;5.892;2023-08-20T12:13:19;30.95;31.19
75363;DHT22;64122;51.988;5.892;2023-08-20T12:15:48;30.92;31.59
75363;DHT22;64122;51.988;5.892;2023-08-20T12:18:18;30.93;31.30
75363;DHT22;64122;51.988;5.892;2023-08-20T12:20:47;30.70;31.66
75363;DHT22;64122;51.988;5.892;2023-08-20T12:23:16;30.72;31.90
75363;DHT22;64122;51.988;5.892;2023-08-20T12:25:50;30.74;31.81
75363;DHT22;64122;51.988;5.892;2023-08-20T12:28:19;30.72;31.70
75363;DHT22;64122;51.988;5.892;2023-08-20T12:30:49;30.67;31.45
75363;DHT22;64122;51.988;5.892;2023-08-20T12:33:18;30.69;31.80
75363;DHT22;64122;51.988;5.892;2023-08-20T12:35:47;30.65;32.13
75363;DHT22;64122;51.988;5.892;2023-08-20T12:38:16;30.64;32.15
75363;DHT22;64122;51.988;5.892;2023-08-20T12:40:48;30.62;32.03
75363;DHT22;64122;51.988;5.892;2023-08-20T12:43:18;30.68;31.97
75363;DHT22;64122;51.988;5.892;2023-08-20T12:45:47;30.72;32.33
75363;DHT22;64122;51.988;5.892;2023-08-20T12:48:16;30.67;32.31
75363;DHT22;64122;51.988;5.892;2023-08-20T12:50:45;30.65;32.86
75363;DHT22;64122;51.988;5.892;2023-08-20T12:53:14;30.69;32.39
75363;DHT22;64122;51.988;5.892;2023-08-20T12:55:44;30.62;31.65
75363;DHT22;64122;51.988;5.892;2023-08-20T12:58:15;30.53;31.87
75363;DHT22;64122;51.988;5.892;2023-08-20T13:00:44;30.56;32.38
75363;DHT22;64122;51.988;5.892;2023-08-20T13:03:14;30.56;32.35
75363;DHT22;64122;51.988;5.892;2023-08-20T13:05:44;30.47;32.74
75363;DHT22;64122;51.988;5.892;2023-08-20T13:08:15;30.54;32.41
75363;DHT22;64122;51.988;5.892;2023-08-20T13:10:50;30.63;32.03
75363;DHT22;64122;51.988;5.892;2023-08-20T13:13:25;30.70;31.98
75363;DHT22;64122;51.988;5.892;2023-08-20T13:15:55;30.64;32.31
75363;DHT22;64122;51.988;5.892;2023-08-20T13:18:25;30.60;32.54
75363;DHT22;64122;51.988;5.892;2023-08-20T13:20:54;30.52;32.54
75363;DHT22;64122;51.988;5.892;2023-08-20T13:23:23;30.44;32.93
75363;DHT22;64122;51.988;5.892;2023-08-20T13:25:53;30.32;33.24
75363;DHT22;64122;51.988;5.892;2023-08-20T13:28:25;30.15;33.05
75363;DHT22;64122;51.988;5.892;2023-08-20T13:30:54;30.01;33.50
75363;DHT22;64122;51.988;5.892;2023-08-20T13:33:23;29.83;32.80
75363;DHT22;64122;51.988;5.892;2023-08-20T13:35:52;29.63;33.34
75363;DHT22;64122;51.988;5.892;2023-08-20T13:38:22;29.67;33.67
75363;DHT22;64122;51.988;5.892;2023-08-20T13:40:51;29.79;33.70
75363;DHT22;64122;51.988;5.892;2023-08-20T13:43:24;29.82;33.35
75363;DHT22;64122;51.988;5.892;2023-08-20T13:45:53;29.72;33.22
75363;DHT22;64122;51.988;5.892;2023-08-20T13:48:23;29.75;33.80
75363;DHT22;64122;51.988;5.892;2023-08-20T13:50:52;29.78;33.49
75363;DHT22;64122;51.988;5.892;2023-08-20T13:53:21;29.75;33.44
75363;DHT22;64122;51.988;5.892;2023-08-20T13:55:51;29.76;33.75
75363;DHT22;64122;51.988;5.892;2023-08-20T13:58:24;29.73;33.60
75363;DHT22;64122;51.988;5.892;2023-08-20T14:00:53;29.67;33.79
75363;DHT22;64122;51.988;5.892;2023-08-20T14:03:22;29.65;33.93
75363;DHT22;64122;51.988;5.892;2023-08-20T14:05:51;29.68;34.25
75363;DHT22;64122;51.988;5.892;2023-08-20T14:08:21;29.71;34.08
75363;DHT22;64122;51.988;5.892;2023-08-20T14:10:50;29.70;34.06
75363;DHT22;64122;51.988;5.892;2023-08-20T14:13:19;29.70;33.57
75363;DHT22;64122;51.988;5.892;2023-08-20T14:15:51;29.58;33.54
75363;DHT22;64122;51.988;5.892;2023-08-20T14:18:20;29.58;33.68
75363;DHT22;64122;51.988;5.892;2023-08-20T14:20:49;29.61;33.78
75363;DHT22;64122;51.988;5.892;2023-08-20T14:23:19;29.61;33.67
75363;DHT22;64122;51.988;5.892;2023-08-20T14:25:48;29.56;33.90
75363;DHT22;64122;51.988;5.892;2023-08-20T14:28:17;29.59;33.73
75363;DHT22;64122;51.988;5.892;2023-08-20T14:30:46;29.61;33.55
75363;DHT22;64122;51.988;5.892;2023-08-20T14:33:18;29.35;33.47
75363;DHT22;64122;51.988;5.892;2023-08-20T14:35:47;29.19;34.05
75363;DHT22;64122;51.988;5.892;2023-08-20T14:38:16;29.30;34.01
75363;DHT22;64122;51.988;5.892;2023-08-20T14:40:45;29.35;34.12
75363;DHT22;64122;51.988;5.892;2023-08-20T14:43:14;29.39;33.54
75363;DHT22;64122;51.988;5.892;2023-08-20T14:45:45;29.43;33.60
75363;DHT22;64122;51.988;5.892;2023-08-20T14:48:14;29.46;33.92
75363;DHT22;64122;51.988;5.892;2023-08-20T14:50:46;29.49;34.08
75363;DHT22;64122;51.988;5.892;2023-08-20T14:53:15;29.49;34.22
75363;DHT22;64122;51.988;5.892;2023-08-20T14:55:44;29.54;34.16
75363;DHT22;64122;51.988;5.892;2023-08-20T14:58:13;29.52;34.09
75363;DHT22;64122;51.988;5.892;2023-08-20T15:00:42;29.48;34.71
75363;DHT22;64122;51.988;5.892;2023-08-20T15:03:11;29.53;34.57
75363;DHT22;64122;51.988;5.892;2023-08-20T15:05:41;29.63;34.73
75363;DHT22;64122;51.988;5.892;2023-08-20T15:08:12;29.62;34.96
75363;DHT22;64122;51.988;5.892;2023-08-20T15:10:41;29.49;35.11
75363;DHT22;64122;51.988;5.892;2023-08-20T15:13:10;29.49;35.14
75363;DHT22;64122;51.988;5.892;2023-08-20T15:15:40;29.44;35.27
75363;DHT22;64122;51.988;5.892;2023-08-20T15:18:09;29.39;35.34
75363;DHT22;64122;51.988;5.892;2023-08-20T15:20:38;29.36;35.31
75363;DHT22;64122;51.988;5.892;2023-08-20T15:23:07;29.31;35.75
75363;DHT22;64122;51.988;5.892;2023-08-20T15:25:39;29.32;35.79
75363;DHT22;64122;51.988;5.892;2023-08-20T15:28:08;29.27;35.78
75363;DHT22;64122;51.988;5.892;2023-08-20T15:30:38;29.19;36.27
75363;DHT22;64122;51.988;5.892;2023-08-20T15:33:07;29.13;36.00
75363;DHT22;64122;51.988;5.892;2023-08-20T15:35:36;29.04;36.34
75363;DHT22;64122;51.988;5.892;2023-08-20T15:38:05;29.08;36.30
75363;DHT22;64122;51.988;5.892;2023-08-20T15:40:35;29.04;36.39
75363;DHT22;64122;51.988;5.892;2023-08-20T15:43:07;28.99;36.61
75363;DHT22;64122;51.988;5.892;2023-08-20T15:45:36;28.92;36.37
75363;DHT22;64122;51.988;5.892;2023-08-20T15:48:06;28.77;36.92
75363;DHT22;64122;51.988;5.892;2023-08-20T15:50:35;28.68;37.16
75363;DHT22;64122;51.988;5.892;2023-08-20T15:53:05;28.54;36.96